sensor_id;sensor_type;location;lat;lon;timestamp;temperature;humidity
15452;DHT22;7827;53.594;9.938;2023-07-29T00:00:12;18.60;99.90
15452;DHT22;7827;53.594;9.938;2023-07-29T00:02:42;18.60;99.90
15452;DHT22;7827;53.594;9.938;2023-07-29T00:05:11;18.50;99.90
15452;DHT22;7827;53.594;9.938;2023-07-29T00:07:39;18.50;99.90
15452;DHT22;7827;53.594;9.938;2023-07-29T00:10:08;18.50;99.90
15452;DHT22;7827;53.594;9.938;2023-07-29T00:12:37;18.50;99.90
15452;DHT22;7827;53.594;9.938;2023-07-29T00:15:07;18.50;99.90
15452;DHT22;7827;53.594;9.938;2023-07-29T00:17:35;18.40;99.90
15452;DHT22;7827;53.594;9.938;2023-07-29T00:20:06;18.40;99.90
15452;DHT22;7827;53.594;9.938;2023-07-29T00:22:35;18.40;99.90
15452;DHT22;7827;53.594;9.938;2023-07-29T00:25:04;18.40;99.90
15452;DHT22;7827;53.594;9.938;2023-07-29T00:27:33;18.40;99.90
15452;DHT22;7827;53.594;9.938;2023-07-29T00:30:01;18.30;99.90
15452;DHT22;7827;53.594;9.938;2023-07-29T00:32:30;18.20;99.90
15452;DHT22;7827;53.594;9.938;2023-07-29T00:34:58;18.10;99.90
15452;DHT22;7827;53.594;9.938;2023-07-29T00:37:30;18.00;99.90
15452;DHT22;7827;53.594;9.938;2023-07-29T00:39:58;18.00;99.90
15452;DHT22;7827;53.594;9.938;2023-07-29T00:42:26;18.00;99.90
15452;DHT22;7827;53.594;9.938;2023-07-29T00:44:55;18.00;99.90
15452;DHT22;7827;53.594;9.938;2023-07-29T00:47:24;18.00;99.90
15452;DHT22;7827;53.594;9.938;2023-07-29T00:49:53;18.10;99.90
15452;DHT22;7827;53.594;9.938;2023-07-29T00:52:22;18.10;99.90
15452;DHT22;7827;53.594;9.938;2023-07-29T00:54:51;18.10;99.90
15452;DHT22;7827;53.594;9.938;2023-07-29T00:57:20;18.10;99.90
15452;DHT22;7827;53.594;9.938;2023-07-29T00:59:49;18.10;99.90
15452;DHT22;7827;53.594;9.938;2023-07-29T01:02:19;18.10;99.90
15452;DHT22;7827;53.594;9.938;2023-07-29T01:04:52;18.10;99.90
15452;DHT22;7827;53.594;9.938;2023-07-29T01:07:24;18.10;99.90
15452;DHT22;7827;53.594;9.938;2023-07-29T01:10:02;18.10;99.90
15452;DHT22;7827;53.594;9.938;2023-07-29T01:12:45;18.20;99.90
15452;DHT22;7827;53.594;9.938;2023-07-29T01:15:20;18.10;99.90
15452;DHT22;7827;53.594;9.938;2023-07-29T01:17:54;18.10;99.90
15452;DHT22;7827;53.594;9.938;2023-07-29T01:20:27;18.10;99.90
15452;DHT22;7827;53.594;9.938;2023-07-29T01:22:56;18.10;99.90
15452;DHT22;7827;53.594;9.938;2023-07-29T01:25:26;18.20;99.90
15452;DHT22;7827;53.594;9.938;2023-07-29T01:27:55;18.20;99.90
15452;DHT22;7827;53.594;9.938;2023-07-29T01:30:30;18.20;99.90
15452;DHT22;7827;53.594;9.938;2023-07-29T01:33:09;18.20;99.90
15452;DHT22;7827;53.594;9.938;2023-07-29T01:35:47;18.20;99.90
15452;DHT22;7827;53.594;9.938;2023-07-29T01:38:20;18.20;99.90
15452;DHT22;7827;53.594;9.938;2023-07-29T01:41:01;18.20;99.90
15452;DHT22;7827;53.594;9.938;2023-07-29T01:43:32;18.20;99.90
15452;DHT22;7827;53.594;9.938;2023-07-29T01:46:01;18.20;99.90
15452;DHT22;7827;53.594;9.938;2023-07-29T01:48:29;18.30;99.90
15452;DHT22;7827;53.594;9.938;2023-07-29T01:50:58;18.30;99.90
15452;DHT22;7827;53.594;9.938;2023-07-29T01:53:27;18.30;99.90
15452;DHT22;7827;53.594;9.938;2023-07-29T01:55:56;18.40;99.90
15452;DHT22;7827;53.594;9.938;2023-07-29T01:58:26;18.40;99.90
15452;DHT22;7827;53.594;9.938;2023-07-29T02:00:54;18.60;99.90
15452;DHT22;7827;53.594;9.938;2023-07-29T02:03:23;18.60;99.90
15452;DHT22;7827;53.594;9.938;2023-07-29T02:05:51;18.70;99.90
15452;DHT22;7827;53.594;9.938;2023-07-29T02:08:20;18.70;99.90
15452;DHT22;7827;53.594;9.938;2023-07-29T02:10:48;18.80;99.90
15452;DHT22;7827;53.594;9.938;2023-07-29T02:13:16;18.80;99.90
15452;DHT22;7827;53.594;9.938;2023-07-29T02:15:46;18.80;99.90
15452;DHT22;7827;53.594;9.938;2023-07-29T02:18:14;18.90;99.90
15452;DHT22;7827;53.594;9.938;2023-07-29T02:20:43;19.10;99.90
15452;DHT22;7827;53.594;9.938;2023-07-29T02:23:16;19.10;99.90
15452;DHT22;7827;53.594;9.938;2023-07-29T02:25:45;19.00;99.90
15452;DHT22;7827;53.594;9.938;2023-07-29T02:28:13;19.10;99.90
15452;DHT22;7827;53.594;9.938;2023-07-29T02:30:42;19.10;99.90
15452;DHT22;7827;53.594;9.938;2023-07-29T02:33:14;19.10;99.90
15452;DHT22;7827;53.594;9.938;2023-07-29T02:35:42;19.00;99.90
15452;DHT22;7827;53.594;9.938;2023-07-29T02:38:11;19.00;99.90
15452;DHT22;7827;53.594;9.938;2023-07-29T02:40:39;19.00;99.90
15452;DHT22;7827;53.594;9.938;2023-07-29T02:43:08;19.10;99.90
15452;DHT22;7827;53.594;9.938;2023-07-29T02:45:36;19.00;99.90
15452;DHT22;7827;53.594;9.938;2023-07-29T02:48:05;19.10;99.90
15452;DHT22;7827;53.594;9.938;2023-07-29T02:50:35;19.10;99.90
15452;DHT22;7827;53.594;9.938;2023-07-29T02:53:04;19.30;99.90
15452;DHT22;7827;53.594;9.938;2023-07-29T02:55:32;19.30;99.90
15452;DHT22;7827;53.594;9.938;2023-07-29T02:58:01;19.40;99.90
15452;DHT22;7827;53.594;9.938;2023-07-29T03:00:31;19.40;99.90
15452;DHT22;7827;53.594;9.938;2023-07-29T03:03:00;19.40;99.90
15452;DHT22;7827;53.594;9.938;2023-07-29T03:05:29;19.40;99.90
15452;DHT22;7827;53.594;9.938;2023-07-29T03:07:59;19.50;99.90
15452;DHT22;7827;53.594;9.938;2023-07-29T03:10:28;19.50;99.90
15452;DHT22;7827;53.594;9.938;2023-07-29T03:12:56;19.60;99.90
15452;DHT22;7827;53.594;9.938;2023-07-29T03:15:25;19.70;99.90
15452;DHT22;7827;53.594;9.938;2023-07-29T03:17:53;19.70;99.90
15452;DHT22;7827;53.594;9.938;2023-07-29T03:20:22;19.60;99.90
15452;DHT22;7827;53.594;9.938;2023-07-29T03:22:50;19.50;99.90
15452;DHT22;7827;53.594;9.938;2023-07-29T03:25:20;19.50;99.90
15452;DHT22;7827;53.594;9.938;2023-07-29T03:27:49;19.40;99.90
15452;DHT22;7827;53.594;9.938;2023-07-29T03:30:19;19.40;99.90
15452;DHT22;7827;53.594;9.938;2023-07-29T03:32:50;19.40;99.90
15452;DHT22;7827;53.594;9.938;2023-07-29T03:35:19;19.40;99.90
15452;DHT22;7827;53.594;9.938;2023-07-29T03:37:48;19.40;99.90
15452;DHT22;7827;53.594;9.938;2023-07-29T03:40:16;19.40;99.90
15452;DHT22;7827;53.594;9.938;2023-07-29T03:42:46;19.40;99.90
15452;DHT22;7827;53.594;9.938;2023-07-29T03:45:14;19.40;99.90
15452;DHT22;7827;53.594;9.938;2023-07-29T03:47:43;19.40;99.90
15452;DHT22;7827;53.594;9.938;2023-07-29T03:50:11;19.40;99.90
15452;DHT22;7827;53.594;9.938;2023-07-29T03:52:40;19.30;99.90
15452;DHT22;7827;53.594;9.938;2023-07-29T03:55:09;19.30;99.90
15452;DHT22;7827;53.594;9.938;2023-07-29T03:57:37;19.30;99.90
15452;DHT22;7827;53.594;9.938;2023-07-29T04:00:07;19.40;99.90
15452;DHT22;7827;53.594;9.938;2023-07-29T04:02:47;19.40;99.90
15452;DHT22;7827;53.594;9.938;2023-07-29T04:05:16;19.40;99.90
15452;DHT22;7827;53.594;9.938;2023-07-29T04:07:45;19.40;99.90
15452;DHT22;7827;53.594;9.938;2023-07-29T04:10:14;19.50;99.90
15452;DHT22;7827;53.594;9.938;2023-07-29T04:12:43;19.50;99.90
15452;DHT22;7827;53.594;9.938;2023-07-29T04:15:13;19.50;99.90
15452;DHT22;7827;53.594;9.938;2023-07-29T04:17:41;19.60;99.90
15452;DHT22;7827;53.594;9.938;2023-07-29T04:20:11;19.60;99.90
15452;DHT22;7827;53.594;9.938;2023-07-29T04:22:39;19.60;99.90
15452;DHT22;7827;53.594;9.938;2023-07-29T04:25:08;19.60;99.90
15452;DHT22;7827;53.594;9.938;2023-07-29T04:27:36;19.60;99.90
15452;DHT22;7827;53.594;9.938;2023-07-29T04:30:06;19.60;99.90
15452;DHT22;7827;53.594;9.938;2023-07-29T04:32:36;19.60;99.90
15452;DHT22;7827;53.594;9.938;2023-07-29T04:35:07;19.70;99.90
15452;DHT22;7827;53.594;9.938;2023-07-29T04:37:36;19.60;99.90
15452;DHT22;7827;53.594;9.938;2023-07-29T04:40:06;19.50;99.90
15452;DHT22;7827;53.594;9.938;2023-07-29T04:42:37;19.40;99.90
15452;DHT22;7827;53.594;9.938;2023-07-29T04:45:06;19.40;99.90
15452;DHT22;7827;53.594;9.938;2023-07-29T04:47:36;19.40;99.90
15452;DHT22;7827;53.594;9.938;2023-07-29T04:50:06;19.40;99.90
15452;DHT22;7827;53.594;9.938;2023-07-29T04:52:36;19.40;99.90
15452;DHT22;7827;53.594;9.938;2023-07-29T04:55:06;19.40;99.90
15452;DHT22;7827;53.594;9.938;2023-07-29T04:57:34;19.40;99.90
15452;DHT22;7827;53.594;9.938;2023-07-29T05:00:03;19.40;99.90
15452;DHT22;7827;53.594;9.938;2023-07-29T05:02:32;19.50;99.90
15452;DHT22;7827;53.594;9.938;2023-07-29T05:05:02;19.50;99.90
15452;DHT22;7827;53.594;9.938;2023-07-29T05:07:31;19.60;99.90
15452;DHT22;7827;53.594;9.938;2023-07-29T05:10:00;19.60;99.90
15452;DHT22;7827;53.594;9.938;2023-07-29T05:12:28;19.70;99.90
15452;DHT22;7827;53.594;9.938;2023-07-29T05:14:59;19.70;99.90
15452;DHT22;7827;53.594;9.938;2023-07-29T05:17:27;19.70;99.90
15452;DHT22;7827;53.594;9.938;2023-07-29T05:19:56;19.70;99.90
15452;DHT22;7827;53.594;9.938;2023-07-29T05:22:26;19.70;99.90
15452;DHT22;7827;53.594;9.938;2023-07-29T05:24:54;19.80;99.90
15452;DHT22;7827;53.594;9.938;2023-07-29T05:27:22;19.80;99.90
15452;DHT22;7827;53.594;9.938;2023-07-29T05:29:51;19.80;99.90
15452;DHT22;7827;53.594;9.938;2023-07-29T05:32:19;19.80;99.90
15452;DHT22;7827;53.594;9.938;2023-07-29T05:34:48;19.80;99.90
15452;DHT22;7827;53.594;9.938;2023-07-29T05:37:16;19.90;99.90
15452;DHT22;7827;53.594;9.938;2023-07-29T05:39:46;19.80;99.90
15452;DHT22;7827;53.594;9.938;2023-07-29T05:42:14;19.90;99.90
15452;DHT22;7827;53.594;9.938;2023-07-29T05:44:43;19.90;99.90
15452;DHT22;7827;53.594;9.938;2023-07-29T05:47:12;20.00;99.90
15452;DHT22;7827;53.594;9.938;2023-07-29T05:49:40;20.10;99.90
15452;DHT22;7827;53.594;9.938;2023-07-29T05:52:09;20.20;99.90
15452;DHT22;7827;53.594;9.938;2023-07-29T05:54:37;20.30;99.90
15452;DHT22;7827;53.594;9.938;2023-07-29T05:57:07;20.30;99.90
15452;DHT22;7827;53.594;9.938;2023-07-29T05:59:36;20.30;99.90
15452;DHT22;7827;53.594;9.938;2023-07-29T06:02:05;20.40;99.90
15452;DHT22;7827;53.594;9.938;2023-07-29T06:04:35;20.30;99.90
15452;DHT22;7827;53.594;9.938;2023-07-29T06:07:04;20.20;99.90
15452;DHT22;7827;53.594;9.938;2023-07-29T06:09:34;20.20;99.90
15452;DHT22;7827;53.594;9.938;2023-07-29T06:12:03;20.10;99.90
15452;DHT22;7827;53.594;9.938;2023-07-29T06:14:33;20.10;99.90
15452;DHT22;7827;53.594;9.938;2023-07-29T06:17:01;20.10;99.90
15452;DHT22;7827;53.594;9.938;2023-07-29T06:19:29;20.20;99.90
15452;DHT22;7827;53.594;9.938;2023-07-29T06:21:58;20.30;99.90
15452;DHT22;7827;53.594;9.938;2023-07-29T06:24:28;20.30;99.90
15452;DHT22;7827;53.594;9.938;2023-07-29T06:26:56;20.30;99.90
15452;DHT22;7827;53.594;9.938;2023-07-29T06:29:25;20.40;99.90
15452;DHT22;7827;53.594;9.938;2023-07-29T06:31:54;20.40;99.90
15452;DHT22;7827;53.594;9.938;2023-07-29T06:34:23;20.30;99.90
15452;DHT22;7827;53.594;9.938;2023-07-29T06:36:52;20.30;99.90
15452;DHT22;7827;53.594;9.938;2023-07-29T06:39:21;20.30;99.90
15452;DHT22;7827;53.594;9.938;2023-07-29T06:41:49;20.30;99.90
15452;DHT22;7827;53.594;9.938;2023-07-29T06:44:18;20.30;99.90
15452;DHT22;7827;53.594;9.938;2023-07-29T06:46:46;20.30;99.90
15452;DHT22;7827;53.594;9.938;2023-07-29T06:49:16;20.30;99.90
15452;DHT22;7827;53.594;9.938;2023-07-29T06:51:44;20.40;99.90
15452;DHT22;7827;53.594;9.938;2023-07-29T06:54:13;20.40;99.90
15452;DHT22;7827;53.594;9.938;2023-07-29T06:56:41;20.50;99.90
15452;DHT22;7827;53.594;9.938;2023-07-29T06:59:10;20.50;99.90
15452;DHT22;7827;53.594;9.938;2023-07-29T07:01:38;20.50;99.90
15452;DHT22;7827;53.594;9.938;2023-07-29T07:04:07;20.50;99.90
15452;DHT22;7827;53.594;9.938;2023-07-29T07:06:36;20.40;99.90
15452;DHT22;7827;53.594;9.938;2023-07-29T07:09:05;20.60;99.90
15452;DHT22;7827;53.594;9.938;2023-07-29T07:11:34;20.60;99.90
15452;DHT22;7827;53.594;9.938;2023-07-29T07:14:02;20.60;99.90
15452;DHT22;7827;53.594;9.938;2023-07-29T07:16:30;20.50;99.90
15452;DHT22;7827;53.594;9.938;2023-07-29T07:18:59;20.50;99.90
15452;DHT22;7827;53.594;9.938;2023-07-29T07:21:27;20.40;99.90
15452;DHT22;7827;53.594;9.938;2023-07-29T07:23:57;20.40;99.90
15452;DHT22;7827;53.594;9.938;2023-07-29T07:26:26;20.40;99.90
15452;DHT22;7827;53.594;9.938;2023-07-29T07:28:54;20.30;99.90
15452;DHT22;7827;53.594;9.938;2023-07-29T07:31:22;20.40;99.90
15452;DHT22;7827;53.594;9.938;2023-07-29T07:33:51;20.40;99.90
15452;DHT22;7827;53.594;9.938;2023-07-29T07:36:19;20.50;99.90
15452;DHT22;7827;53.594;9.938;2023-07-29T07:38:47;20.50;99.90
15452;DHT22;7827;53.594;9.938;2023-07-29T07:41:17;20.60;99.90
15452;DHT22;7827;53.594;9.938;2023-07-29T07:43:45;20.50;99.90
15452;DHT22;7827;53.594;9.938;2023-07-29T07:46:14;20.50;99.90
15452;DHT22;7827;53.594;9.938;2023-07-29T07:48:42;20.50;99.90
15452;DHT22;7827;53.594;9.938;2023-07-29T07:51:11;20.60;99.90
15452;DHT22;7827;53.594;9.938;2023-07-29T07:53:40;20.50;99.90
15452;DHT22;7827;53.594;9.938;2023-07-29T07:56:09;20.50;99.90
15452;DHT22;7827;53.594;9.938;2023-07-29T07:58:39;20.50;99.90
15452;DHT22;7827;53.594;9.938;2023-07-29T08:01:08;20.50;99.90
15452;DHT22;7827;53.594;9.938;2023-07-29T08:03:38;20.50;99.90
15452;DHT22;7827;53.594;9.938;2023-07-29T08:06:07;20.40;99.90
15452;DHT22;7827;53.594;9.938;2023-07-29T08:08:37;20.50;99.90
15452;DHT22;7827;53.594;9.938;2023-07-29T08:11:05;20.60;99.90
15452;DHT22;7827;53.594;9.938;2023-07-29T08:13:34;20.60;99.90
15452;DHT22;7827;53.594;9.938;2023-07-29T08:16:03;20.50;99.90
15452;DHT22;7827;53.594;9.938;2023-07-29T08:18:32;20.60;99.90
15452;DHT22;7827;53.594;9.938;2023-07-29T08:21:01;20.60;99.90
15452;DHT22;7827;53.594;9.938;2023-07-29T08:23:31;20.50;99.90
15452;DHT22;7827;53.594;9.938;2023-07-29T08:26:02;20.50;99.90
15452;DHT22;7827;53.594;9.938;2023-07-29T08:28:36;20.60;99.90
15452;DHT22;7827;53.594;9.938;2023-07-29T08:31:08;20.60;99.90
15452;DHT22;7827;53.594;9.938;2023-07-29T08:33:36;20.70;99.90
15452;DHT22;7827;53.594;9.938;2023-07-29T08:36:05;20.60;99.90
15452;DHT22;7827;53.594;9.938;2023-07-29T08:38:33;20.60;99.90
15452;DHT22;7827;53.594;9.938;2023-07-29T08:41:14;20.60;99.90
15452;DHT22;7827;53.594;9.938;2023-07-29T08:43:52;20.60;99.90
15452;DHT22;7827;53.594;9.938;2023-07-29T08:46:26;20.60;99.90
15452;DHT22;7827;53.594;9.938;2023-07-29T08:48:56;20.70;99.90
15452;DHT22;7827;53.594;9.938;2023-07-29T08:51:27;20.70;99.90
15452;DHT22;7827;53.594;9.938;2023-07-29T08:53:58;20.90;99.90
15452;DHT22;7827;53.594;9.938;2023-07-29T08:56:26;21.00;99.90
15452;DHT22;7827;53.594;9.938;2023-07-29T08:58:57;20.90;99.90
15452;DHT22;7827;53.594;9.938;2023-07-29T09:01:28;20.90;99.90
15452;DHT22;7827;53.594;9.938;2023-07-29T09:03:58;21.00;99.90
15452;DHT22;7827;53.594;9.938;2023-07-29T09:06:27;21.10;99.90
15452;DHT22;7827;53.594;9.938;2023-07-29T09:08:56;21.10;99.90
15452;DHT22;7827;53.594;9.938;2023-07-29T09:11:26;21.30;99.90
15452;DHT22;7827;53.594;9.938;2023-07-29T09:13:55;21.40;99.90
15452;DHT22;7827;53.594;9.938;2023-07-29T09:16:24;21.50;99.90
15452;DHT22;7827;53.594;9.938;2023-07-29T09:18:55;21.60;99.90
15452;DHT22;7827;53.594;9.938;2023-07-29T09:21:25;21.60;99.90
15452;DHT22;7827;53.594;9.938;2023-07-29T09:23:55;21.50;99.90
15452;DHT22;7827;53.594;9.938;2023-07-29T09:26:24;21.50;99.90
15452;DHT22;7827;53.594;9.938;2023-07-29T09:28:54;21.60;99.90
15452;DHT22;7827;53.594;9.938;2023-07-29T09:31:24;21.70;99.90
15452;DHT22;7827;53.594;9.938;2023-07-29T09:33:57;21.70;99.90
15452;DHT22;7827;53.594;9.938;2023-07-29T09:36:27;21.70;99.90
15452;DHT22;7827;53.594;9.938;2023-07-29T09:38:58;21.90;99.90
15452;DHT22;7827;53.594;9.938;2023-07-29T09:41:28;22.00;99.90
15452;DHT22;7827;53.594;9.938;2023-07-29T09:43:59;22.10;99.90
15452;DHT22;7827;53.594;9.938;2023-07-29T09:46:32;22.30;99.90
15452;DHT22;7827;53.594;9.938;2023-07-29T09:49:06;22.50;99.90
15452;DHT22;7827;53.594;9.938;2023-07-29T09:51:38;22.60;99.90
15452;DHT22;7827;53.594;9.938;2023-07-29T09:54:07;22.80;99.90
15452;DHT22;7827;53.594;9.938;2023-07-29T09:56:41;22.90;99.90
15452;DHT22;7827;53.594;9.938;2023-07-29T09:59:11;22.90;99.90
15452;DHT22;7827;53.594;9.938;2023-07-29T10:01:40;23.00;99.90
15452;DHT22;7827;53.594;9.938;2023-07-29T10:04:11;23.10;99.90
15452;DHT22;7827;53.594;9.938;2023-07-29T10:06:41;23.10;99.90
15452;DHT22;7827;53.594;9.938;2023-07-29T10:09:11;23.10;99.90
15452;DHT22;7827;53.594;9.938;2023-07-29T10:11:41;23.10;99.90
15452;DHT22;7827;53.594;9.938;2023-07-29T10:14:11;23.00;99.90
15452;DHT22;7827;53.594;9.938;2023-07-29T10:16:40;23.10;99.90
15452;DHT22;7827;53.594;9.938;2023-07-29T10:19:10;23.20;99.90
15452;DHT22;7827;53.594;9.938;2023-07-29T10:21:44;23.40;99.90
15452;DHT22;7827;53.594;9.938;2023-07-29T10:24:19;23.50;99.90
15452;DHT22;7827;53.594;9.938;2023-07-29T10:26:58;23.60;99.90
15452;DHT22;7827;53.594;9.938;2023-07-29T10:29:31;23.50;99.90
15452;DHT22;7827;53.594;9.938;2023-07-29T10:32:02;23.30;99.90
15452;DHT22;7827;53.594;9.938;2023-07-29T10:34:33;23.10;99.90
15452;DHT22;7827;53.594;9.938;2023-07-29T10:37:02;22.90;99.90
15452;DHT22;7827;53.594;9.938;2023-07-29T10:39:38;22.90;99.90
15452;DHT22;7827;53.594;9.938;2023-07-29T10:42:07;22.90;99.90
15452;DHT22;7827;53.594;9.938;2023-07-29T10:44:46;23.10;99.90
15452;DHT22;7827;53.594;9.938;2023-07-29T10:47:18;23.30;99.90
15452;DHT22;7827;53.594;9.938;2023-07-29T10:49:51;23.30;99.90
15452;DHT22;7827;53.594;9.938;2023-07-29T10:52:39;23.20;99.90
15452;DHT22;7827;53.594;9.938;2023-07-29T10:55:29;23.00;99.90
15452;DHT22;7827;53.594;9.938;2023-07-29T10:58:13;22.80;99.90
15452;DHT22;7827;53.594;9.938;2023-07-29T11:00:42;22.60;99.90
15452;DHT22;7827;53.594;9.938;2023-07-29T11:03:12;22.50;99.90
15452;DHT22;7827;53.594;9.938;2023-07-29T11:05:50;22.50;99.90
15452;DHT22;7827;53.594;9.938;2023-07-29T11:08:27;22.50;99.90
15452;DHT22;7827;53.594;9.938;2023-07-29T11:11:05;22.60;99.90
15452;DHT22;7827;53.594;9.938;2023-07-29T11:13:36;22.60;99.90
15452;DHT22;7827;53.594;9.938;2023-07-29T11:16:05;22.70;99.90
15452;DHT22;7827;53.594;9.938;2023-07-29T11:18:35;22.90;99.90
15452;DHT22;7827;53.594;9.938;2023-07-29T11:21:05;22.90;99.90
15452;DHT22;7827;53.594;9.938;2023-07-29T11:23:35;23.00;99.90
15452;DHT22;7827;53.594;9.938;2023-07-29T11:26:04;23.00;99.90
15452;DHT22;7827;53.594;9.938;2023-07-29T11:28:38;22.90;84.70
15452;DHT22;7827;53.594;9.938;2023-07-29T11:31:07;22.90;94.40
15452;DHT22;7827;53.594;9.938;2023-07-29T11:33:38;23.10;97.40
15452;DHT22;7827;53.594;9.938;2023-07-29T11:36:19;23.40;91.50
15452;DHT22;7827;53.594;9.938;2023-07-29T11:38:48;23.70;51.00
15452;DHT22;7827;53.594;9.938;2023-07-29T11:41:20;23.90;8.90
15452;DHT22;7827;53.594;9.938;2023-07-29T11:43:53;24.00;99.90
15452;DHT22;7827;53.594;9.938;2023-07-29T11:46:22;23.90;99.90
15452;DHT22;7827;53.594;9.938;2023-07-29T11:48:53;23.80;74.10
15452;DHT22;7827;53.594;9.938;2023-07-29T11:51:23;23.80;1.00
15452;DHT22;7827;53.594;9.938;2023-07-29T11:53:54;23.90;84.10
15452;DHT22;7827;53.594;9.938;2023-07-29T11:56:23;24.10;43.30
15452;DHT22;7827;53.594;9.938;2023-07-29T11:58:53;24.40;99.90
15452;DHT22;7827;53.594;9.938;2023-07-29T12:01:23;24.40;99.90
15452;DHT22;7827;53.594;9.938;2023-07-29T12:03:52;24.40;99.90
15452;DHT22;7827;53.594;9.938;2023-07-29T12:06:22;24.40;1.00
15452;DHT22;7827;53.594;9.938;2023-07-29T12:08:52;24.40;1.00
15452;DHT22;7827;53.594;9.938;2023-07-29T12:11:21;24.40;1.00
15452;DHT22;7827;53.594;9.938;2023-07-29T12:13:49;24.40;1.00
15452;DHT22;7827;53.594;9.938;2023-07-29T12:16:18;24.50;1.00
15452;DHT22;7827;53.594;9.938;2023-07-29T12:18:46;24.50;1.00
15452;DHT22;7827;53.594;9.938;2023-07-29T12:21:15;24.50;99.90
15452;DHT22;7827;53.594;9.938;2023-07-29T12:23:46;24.40;99.90
15452;DHT22;7827;53.594;9.938;2023-07-29T12:26:15;24.40;99.90
15452;DHT22;7827;53.594;9.938;2023-07-29T12:28:46;24.40;97.30
15452;DHT22;7827;53.594;9.938;2023-07-29T12:31:15;24.40;1.00
15452;DHT22;7827;53.594;9.938;2023-07-29T12:33:43;24.50;1.00
15452;DHT22;7827;53.594;9.938;2023-07-29T12:36:12;24.50;99.90
15452;DHT22;7827;53.594;9.938;2023-07-29T12:38:42;24.60;1.00
15452;DHT22;7827;53.594;9.938;2023-07-29T12:41:12;24.60;1.00
15452;DHT22;7827;53.594;9.938;2023-07-29T12:43:41;24.50;1.00
15452;DHT22;7827;53.594;9.938;2023-07-29T12:46:09;24.30;99.90
15452;DHT22;7827;53.594;9.938;2023-07-29T12:48:38;24.30;1.00
15452;DHT22;7827;53.594;9.938;2023-07-29T12:51:06;24.30;99.90
15452;DHT22;7827;53.594;9.938;2023-07-29T12:53:34;24.30;4.20
15452;DHT22;7827;53.594;9.938;2023-07-29T12:56:03;24.30;61.80
15452;DHT22;7827;53.594;9.938;2023-07-29T12:58:33;24.10;1.00
15452;DHT22;7827;53.594;9.938;2023-07-29T13:01:01;24.10;1.00
15452;DHT22;7827;53.594;9.938;2023-07-29T13:03:30;24.20;1.00
15452;DHT22;7827;53.594;9.938;2023-07-29T13:05:58;24.30;99.90
15452;DHT22;7827;53.594;9.938;2023-07-29T13:08:26;24.50;1.00
15452;DHT22;7827;53.594;9.938;2023-07-29T13:10:55;24.50;99.90
15452;DHT22;7827;53.594;9.938;2023-07-29T13:13:23;24.60;99.90
15452;DHT22;7827;53.594;9.938;2023-07-29T13:15:53;24.40;1.00
15452;DHT22;7827;53.594;9.938;2023-07-29T13:18:21;24.30;77.00
15452;DHT22;7827;53.594;9.938;2023-07-29T13:20:50;24.20;99.90
15452;DHT22;7827;53.594;9.938;2023-07-29T13:23:18;24.30;1.00
15452;DHT22;7827;53.594;9.938;2023-07-29T13:25:47;24.30;1.00
15452;DHT22;7827;53.594;9.938;2023-07-29T13:28:16;24.40;99.90
15452;DHT22;7827;53.594;9.938;2023-07-29T13:30:45;24.20;99.90
15452;DHT22;7827;53.594;9.938;2023-07-29T13:33:15;24.10;92.80
15452;DHT22;7827;53.594;9.938;2023-07-29T13:35:44;24.20;1.00
15452;DHT22;7827;53.594;9.938;2023-07-29T13:38:12;24.10;99.90
15452;DHT22;7827;53.594;9.938;2023-07-29T13:40:40;23.90;99.90
15452;DHT22;7827;53.594;9.938;2023-07-29T13:43:08;24.00;1.00
15452;DHT22;7827;53.594;9.938;2023-07-29T13:45:37;24.00;1.00
15452;DHT22;7827;53.594;9.938;2023-07-29T13:48:06;24.00;1.00
15452;DHT22;7827;53.594;9.938;2023-07-29T13:50:35;24.10;1.00
15452;DHT22;7827;53.594;9.938;2023-07-29T13:53:04;24.30;1.00
15452;DHT22;7827;53.594;9.938;2023-07-29T13:55:32;24.30;99.90
15452;DHT22;7827;53.594;9.938;2023-07-29T13:58:00;24.50;1.00
15452;DHT22;7827;53.594;9.938;2023-07-29T14:00:29;24.40;1.00
15452;DHT22;7827;53.594;9.938;2023-07-29T14:02:57;24.50;1.00
15452;DHT22;7827;53.594;9.938;2023-07-29T14:05:26;24.70;1.00
15452;DHT22;7827;53.594;9.938;2023-07-29T14:07:55;24.50;99.90
15452;DHT22;7827;53.594;9.938;2023-07-29T14:10:24;24.30;96.30
15452;DHT22;7827;53.594;9.938;2023-07-29T14:12:53;24.20;1.00
15452;DHT22;7827;53.594;9.938;2023-07-29T14:15:21;24.40;99.90
15452;DHT22;7827;53.594;9.938;2023-07-29T14:17:50;24.50;99.90
15452;DHT22;7827;53.594;9.938;2023-07-29T14:20:18;24.50;99.90
15452;DHT22;7827;53.594;9.938;2023-07-29T14:22:48;24.60;99.90
15452;DHT22;7827;53.594;9.938;2023-07-29T14:25:18;24.80;99.90
15452;DHT22;7827;53.594;9.938;2023-07-29T14:27:46;24.90;1.00
15452;DHT22;7827;53.594;9.938;2023-07-29T14:30:15;24.70;99.90
15452;DHT22;7827;53.594;9.938;2023-07-29T14:32:43;24.60;1.00
15452;DHT22;7827;53.594;9.938;2023-07-29T14:35:11;24.60;99.90
15452;DHT22;7827;53.594;9.938;2023-07-29T14:37:40;24.40;99.90
15452;DHT22;7827;53.594;9.938;2023-07-29T14:40:08;24.30;1.00
15452;DHT22;7827;53.594;9.938;2023-07-29T14:42:38;24.30;1.00
15452;DHT22;7827;53.594;9.938;2023-07-29T14:45:07;24.30;59.10
15452;DHT22;7827;53.594;9.938;2023-07-29T14:47:36;24.50;1.00
15452;DHT22;7827;53.594;9.938;2023-07-29T14:50:05;24.50;99.90
15452;DHT22;7827;53.594;9.938;2023-07-29T14:52:33;24.50;1.00
15452;DHT22;7827;53.594;9.938;2023-07-29T14:55:02;24.60;99.90
15452;DHT22;7827;53.594;9.938;2023-07-29T14:57:30;24.80;99.90
15452;DHT22;7827;53.594;9.938;2023-07-29T15:00:00;25.00;99.90
15452;DHT22;7827;53.594;9.938;2023-07-29T15:02:30;24.90;99.90
15452;DHT22;7827;53.594;9.938;2023-07-29T15:04:59;25.00;1.00
15452;DHT22;7827;53.594;9.938;2023-07-29T15:07:27;25.10;1.00
15452;DHT22;7827;53.594;9.938;2023-07-29T15:09:55;25.20;99.90
15452;DHT22;7827;53.594;9.938;2023-07-29T15:12:24;25.30;1.00
15452;DHT22;7827;53.594;9.938;2023-07-29T15:14:52;25.30;1.00
15452;DHT22;7827;53.594;9.938;2023-07-29T15:17:22;25.30;99.90
15452;DHT22;7827;53.594;9.938;2023-07-29T15:19:50;25.40;1.00
15452;DHT22;7827;53.594;9.938;2023-07-29T15:22:19;25.50;99.90
15452;DHT22;7827;53.594;9.938;2023-07-29T15:24:47;25.60;1.00
15452;DHT22;7827;53.594;9.938;2023-07-29T15:27:16;25.80;1.00
15452;DHT22;7827;53.594;9.938;2023-07-29T15:29:45;25.80;99.90
15452;DHT22;7827;53.594;9.938;2023-07-29T15:32:13;25.80;56.60
15452;DHT22;7827;53.594;9.938;2023-07-29T15:34:43;25.70;1.00
15452;DHT22;7827;53.594;9.938;2023-07-29T15:37:11;25.70;42.60
15452;DHT22;7827;53.594;9.938;2023-07-29T15:39:40;25.50;99.90
15452;DHT22;7827;53.594;9.938;2023-07-29T15:42:09;25.30;99.90
15452;DHT22;7827;53.594;9.938;2023-07-29T15:44:37;25.30;1.00
15452;DHT22;7827;53.594;9.938;2023-07-29T15:47:06;25.10;1.00
15452;DHT22;7827;53.594;9.938;2023-07-29T15:49:34;24.90;99.90
15452;DHT22;7827;53.594;9.938;2023-07-29T15:52:04;24.80;99.90
15452;DHT22;7827;53.594;9.938;2023-07-29T15:54:38;24.40;99.90
15452;DHT22;7827;53.594;9.938;2023-07-29T15:57:06;24.20;1.00
15452;DHT22;7827;53.594;9.938;2023-07-29T15:59:35;24.10;1.00
15452;DHT22;7827;53.594;9.938;2023-07-29T16:02:03;24.00;99.90